sensor_id;sensor_type;location;lat;lon;timestamp;P1;durP1;ratioP1;P2;durP2;ratioP2
18505;SDS011;9382;53.242;10.438;2022-11-28T00:00:27;15.40;;;9.83;;
18505;SDS011;9382;53.242;10.438;2022-11-28T00:02:54;16.73;;;9.70;;
18505;SDS011;9382;53.242;10.438;2022-11-28T00:05:21;17.00;;;10.03;;
18505;SDS011;9382;53.242;10.438;2022-11-28T00:07:48;17.13;;;9.47;;
18505;SDS011;9382;53.242;10.438;2022-11-28T00:10:15;19.80;;;10.50;;
18505;SDS011;9382;53.242;10.438;2022-11-28T00:12:41;17.20;;;9.70;;
18505;SDS011;9382;53.242;10.438;2022-11-28T00:15:09;17.73;;;9.87;;
18505;SDS011;9382;53.242;10.438;2022-11-28T00:17:37;17.73;;;10.10;;
18505;SDS011;9382;53.242;10.438;2022-11-28T00:20:05;18.37;;;10.23;;
18505;SDS011;9382;53.242;10.438;2022-11-28T00:22:32;15.77;;;9.70;;
18505;SDS011;9382;53.242;10.438;2022-11-28T00:24:59;16.47;;;9.70;;
18505;SDS011;9382;53.242;10.438;2022-11-28T00:27:26;14.33;;;9.60;;
18505;SDS011;9382;53.242;10.438;2022-11-28T00:29:52;18.50;;;9.80;;
18505;SDS011;9382;53.242;10.438;2022-11-28T00:32:20;18.97;;;9.90;;
18505;SDS011;9382;53.242;10.438;2022-11-28T00:34:49;17.90;;;9.70;;
18505;SDS011;9382;53.242;10.438;2022-11-28T00:37:15;16.00;;;9.57;;
18505;SDS011;9382;53.242;10.438;2022-11-28T00:39:42;14.13;;;9.00;;
18505;SDS011;9382;53.242;10.438;2022-11-28T00:42:09;14.90;;;9.40;;
18505;SDS011;9382;53.242;10.438;2022-11-28T00:44:35;13.73;;;9.17;;
18505;SDS011;9382;53.242;10.438;2022-11-28T00:47:02;14.30;;;9.60;;
18505;SDS011;9382;53.242;10.438;2022-11-28T00:49:29;15.53;;;9.17;;
18505;SDS011;9382;53.242;10.438;2022-11-28T00:51:57;14.40;;;8.50;;
18505;SDS011;9382;53.242;10.438;2022-11-28T00:54:24;15.37;;;9.10;;
18505;SDS011;9382;53.242;10.438;2022-11-28T00:56:51;13.53;;;8.77;;
18505;SDS011;9382;53.242;10.438;2022-11-28T00:59:17;15.60;;;9.40;;
18505;SDS011;9382;53.242;10.438;2022-11-28T01:01:44;13.57;;;9.10;;
18505;SDS011;9382;53.242;10.438;2022-11-28T01:04:12;15.23;;;9.50;;
18505;SDS011;9382;53.242;10.438;2022-11-28T01:06:40;13.97;;;8.63;;
18505;SDS011;9382;53.242;10.438;2022-11-28T01:09:10;14.77;;;9.07;;
18505;SDS011;9382;53.242;10.438;2022-11-28T01:11:39;14.53;;;9.40;;
18505;SDS011;9382;53.242;10.438;2022-11-28T01:14:07;15.43;;;9.17;;
18505;SDS011;9382;53.242;10.438;2022-11-28T01:16:34;16.73;;;9.27;;
18505;SDS011;9382;53.242;10.438;2022-11-28T01:19:01;17.73;;;9.83;;
18505;SDS011;9382;53.242;10.438;2022-11-28T01:21:28;11.93;;;8.30;;
18505;SDS011;9382;53.242;10.438;2022-11-28T01:23:55;19.87;;;9.77;;
18505;SDS011;9382;53.242;10.438;2022-11-28T01:26:25;15.47;;;9.27;;
18505;SDS011;9382;53.242;10.438;2022-11-28T01:28:53;16.03;;;9.40;;
18505;SDS011;9382;53.242;10.438;2022-11-28T01:31:21;16.87;;;9.60;;
18505;SDS011;9382;53.242;10.438;2022-11-28T01:33:50;12.90;;;8.37;;
18505;SDS011;9382;53.242;10.438;2022-11-28T01:36:17;15.70;;;9.17;;
18505;SDS011;9382;53.242;10.438;2022-11-28T01:38:45;16.57;;;9.13;;
18505;SDS011;9382;53.242;10.438;2022-11-28T01:41:12;14.63;;;9.30;;
18505;SDS011;9382;53.242;10.438;2022-11-28T01:46:34;16.10;;;9.47;;
18505;SDS011;9382;53.242;10.438;2022-11-28T01:49:02;16.70;;;9.43;;
18505;SDS011;9382;53.242;10.438;2022-11-28T01:51:34;14.77;;;9.33;;
18505;SDS011;9382;53.242;10.438;2022-11-28T01:54:01;17.03;;;9.60;;
18505;SDS011;9382;53.242;10.438;2022-11-28T01:56:30;14.27;;;8.93;;
18505;SDS011;9382;53.242;10.438;2022-11-28T01:59:06;15.50;;;9.10;;
18505;SDS011;9382;53.242;10.438;2022-11-28T02:01:35;14.97;;;9.00;;
18505;SDS011;9382;53.242;10.438;2022-11-28T02:04:03;16.43;;;9.40;;
18505;SDS011;9382;53.242;10.438;2022-11-28T02:06:30;15.17;;;8.90;;
18505;SDS011;9382;53.242;10.438;2022-11-28T02:08:57;15.97;;;9.63;;
18505;SDS011;9382;53.242;10.438;2022-11-28T02:11:28;14.63;;;8.73;;
18505;SDS011;9382;53.242;10.438;2022-11-28T02:14:19;13.77;;;9.10;;
18505;SDS011;9382;53.242;10.438;2022-11-28T02:17:06;13.73;;;8.87;;
18505;SDS011;9382;53.242;10.438;2022-11-28T02:22:57;15.40;;;8.77;;
18505;SDS011;9382;53.242;10.438;2022-11-28T02:25:37;15.30;;;9.40;;
18505;SDS011;9382;53.242;10.438;2022-11-28T02:31:36;14.13;;;9.63;;
18505;SDS011;9382;53.242;10.438;2022-11-28T02:34:25;19.03;;;9.50;;
18505;SDS011;9382;53.242;10.438;2022-11-28T02:36:58;15.37;;;9.00;;
18505;SDS011;9382;53.242;10.438;2022-11-28T02:39:30;15.83;;;9.40;;
18505;SDS011;9382;53.242;10.438;2022-11-28T02:42:05;13.23;;;9.10;;
18505;SDS011;9382;53.242;10.438;2022-11-28T02:44:38;13.97;;;9.33;;
18505;SDS011;9382;53.242;10.438;2022-11-28T02:47:10;14.63;;;8.43;;
18505;SDS011;9382;53.242;10.438;2022-11-28T02:49:44;11.80;;;8.20;;
18505;SDS011;9382;53.242;10.438;2022-11-28T02:52:18;13.00;;;8.57;;
18505;SDS011;9382;53.242;10.438;2022-11-28T02:54:50;13.93;;;9.00;;
18505;SDS011;9382;53.242;10.438;2022-11-28T02:57:19;16.00;;;9.37;;
18505;SDS011;9382;53.242;10.438;2022-11-28T02:59:47;15.13;;;8.67;;
18505;SDS011;9382;53.242;10.438;2022-11-28T03:02:17;11.00;;;8.20;;
18505;SDS011;9382;53.242;10.438;2022-11-28T03:04:49;14.53;;;9.10;;
18505;SDS011;9382;53.242;10.438;2022-11-28T03:07:23;14.43;;;9.30;;
18505;SDS011;9382;53.242;10.438;2022-11-28T03:10:07;14.43;;;8.70;;
18505;SDS011;9382;53.242;10.438;2022-11-28T03:12:43;15.27;;;9.50;;
18505;SDS011;9382;53.242;10.438;2022-11-28T03:15:17;14.30;;;9.20;;
18505;SDS011;9382;53.242;10.438;2022-11-28T03:17:51;18.03;;;9.37;;
18505;SDS011;9382;53.242;10.438;2022-11-28T03:20:22;14.20;;;9.17;;
18505;SDS011;9382;53.242;10.438;2022-11-28T03:22:58;15.47;;;9.03;;
18505;SDS011;9382;53.242;10.438;2022-11-28T03:25:35;14.27;;;8.83;;
18505;SDS011;9382;53.242;10.438;2022-11-28T03:28:06;16.30;;;9.53;;
18505;SDS011;9382;53.242;10.438;2022-11-28T03:30:39;12.33;;;8.83;;
18505;SDS011;9382;53.242;10.438;2022-11-28T03:33:12;13.83;;;8.63;;
18505;SDS011;9382;53.242;10.438;2022-11-28T03:35:42;13.67;;;9.07;;
18505;SDS011;9382;53.242;10.438;2022-11-28T03:38:15;12.77;;;8.90;;
18505;SDS011;9382;53.242;10.438;2022-11-28T03:40:48;14.67;;;9.00;;
18505;SDS011;9382;53.242;10.438;2022-11-28T03:43:17;15.20;;;9.87;;
18505;SDS011;9382;53.242;10.438;2022-11-28T03:45:49;17.10;;;9.80;;
18505;SDS011;9382;53.242;10.438;2022-11-28T03:48:22;12.97;;;8.87;;
18505;SDS011;9382;53.242;10.438;2022-11-28T03:50:52;15.23;;;9.20;;
18505;SDS011;9382;53.242;10.438;2022-11-28T03:53:25;17.10;;;8.97;;
18505;SDS011;9382;53.242;10.438;2022-11-28T03:55:56;12.70;;;8.93;;
18505;SDS011;9382;53.242;10.438;2022-11-28T03:58:29;13.80;;;8.93;;
18505;SDS011;9382;53.242;10.438;2022-11-28T04:01:00;15.80;;;8.87;;
18505;SDS011;9382;53.242;10.438;2022-11-28T04:03:37;13.27;;;8.70;;
18505;SDS011;9382;53.242;10.438;2022-11-28T04:06:12;14.97;;;8.77;;
18505;SDS011;9382;53.242;10.438;2022-11-28T04:08:43;13.57;;;8.53;;
18505;SDS011;9382;53.242;10.438;2022-11-28T04:11:17;14.00;;;9.33;;
18505;SDS011;9382;53.242;10.438;2022-11-28T04:13:49;13.17;;;8.93;;
18505;SDS011;9382;53.242;10.438;2022-11-28T04:16:20;15.77;;;8.90;;
18505;SDS011;9382;53.242;10.438;2022-11-28T04:18:54;15.43;;;8.97;;
18505;SDS011;9382;53.242;10.438;2022-11-28T04:21:26;12.73;;;9.27;;
18505;SDS011;9382;53.242;10.438;2022-11-28T04:23:59;15.10;;;8.90;;
18505;SDS011;9382;53.242;10.438;2022-11-28T04:26:29;14.27;;;9.27;;
18505;SDS011;9382;53.242;10.438;2022-11-28T04:28:59;15.63;;;9.00;;
18505;SDS011;9382;53.242;10.438;2022-11-28T04:31:28;14.20;;;9.10;;
18505;SDS011;9382;53.242;10.438;2022-11-28T04:33:58;13.57;;;9.20;;
18505;SDS011;9382;53.242;10.438;2022-11-28T04:36:29;16.07;;;9.13;;
18505;SDS011;9382;53.242;10.438;2022-11-28T04:38:57;14.20;;;9.30;;
18505;SDS011;9382;53.242;10.438;2022-11-28T04:41:27;16.20;;;9.67;;
18505;SDS011;9382;53.242;10.438;2022-11-28T04:44:02;17.30;;;10.13;;
18505;SDS011;9382;53.242;10.438;2022-11-28T04:46:36;16.97;;;9.90;;
18505;SDS011;9382;53.242;10.438;2022-11-28T04:49:07;15.20;;;9.40;;
18505;SDS011;9382;53.242;10.438;2022-11-28T04:51:35;15.23;;;9.67;;
18505;SDS011;9382;53.242;10.438;2022-11-28T04:54:09;14.73;;;9.87;;
18505;SDS011;9382;53.242;10.438;2022-11-28T04:56:41;15.90;;;9.60;;
18505;SDS011;9382;53.242;10.438;2022-11-28T04:59:12;16.67;;;9.63;;
18505;SDS011;9382;53.242;10.438;2022-11-28T05:01:40;14.70;;;9.23;;
18505;SDS011;9382;53.242;10.438;2022-11-28T05:04:12;17.63;;;10.00;;
18505;SDS011;9382;53.242;10.438;2022-11-28T05:06:41;13.87;;;9.30;;
18505;SDS011;9382;53.242;10.438;2022-11-28T05:09:08;16.03;;;9.70;;
18505;SDS011;9382;53.242;10.438;2022-11-28T05:11:35;14.73;;;9.67;;
18505;SDS011;9382;53.242;10.438;2022-11-28T05:14:02;18.67;;;9.97;;
18505;SDS011;9382;53.242;10.438;2022-11-28T05:16:29;15.90;;;9.97;;
18505;SDS011;9382;53.242;10.438;2022-11-28T05:18:56;16.00;;;9.40;;
18505;SDS011;9382;53.242;10.438;2022-11-28T05:21:24;15.37;;;9.67;;
18505;SDS011;9382;53.242;10.438;2022-11-28T05:23:51;15.37;;;9.67;;
18505;SDS011;9382;53.242;10.438;2022-11-28T05:26:18;17.80;;;10.13;;
18505;SDS011;9382;53.242;10.438;2022-11-28T05:28:47;13.83;;;9.33;;
18505;SDS011;9382;53.242;10.438;2022-11-28T05:31:15;17.90;;;10.27;;
18505;SDS011;9382;53.242;10.438;2022-11-28T05:33:42;16.90;;;10.37;;
18505;SDS011;9382;53.242;10.438;2022-11-28T05:36:09;17.23;;;10.13;;
18505;SDS011;9382;53.242;10.438;2022-11-28T05:38:39;17.00;;;10.43;;
18505;SDS011;9382;53.242;10.438;2022-11-28T05:41:06;16.83;;;9.43;;
18505;SDS011;9382;53.242;10.438;2022-11-28T05:43:33;18.17;;;10.37;;
18505;SDS011;9382;53.242;10.438;2022-11-28T05:46:01;18.30;;;9.93;;
18505;SDS011;9382;53.242;10.438;2022-11-28T05:48:29;16.07;;;10.17;;
18505;SDS011;9382;53.242;10.438;2022-11-28T05:50:56;17.57;;;9.70;;
18505;SDS011;9382;53.242;10.438;2022-11-28T05:53:23;17.33;;;9.50;;
18505;SDS011;9382;53.242;10.438;2022-11-28T05:55:51;16.37;;;10.43;;
18505;SDS011;9382;53.242;10.438;2022-11-28T05:58:17;13.87;;;9.53;;
18505;SDS011;9382;53.242;10.438;2022-11-28T06:00:44;17.27;;;10.27;;
18505;SDS011;9382;53.242;10.438;2022-11-28T06:03:11;16.07;;;10.67;;
18505;SDS011;9382;53.242;10.438;2022-11-28T06:05:38;14.87;;;9.57;;
18505;SDS011;9382;53.242;10.438;2022-11-28T06:08:06;18.60;;;10.83;;
18505;SDS011;9382;53.242;10.438;2022-11-28T06:10:33;17.30;;;10.70;;
18505;SDS011;9382;53.242;10.438;2022-11-28T06:13:01;15.33;;;10.67;;
18505;SDS011;9382;53.242;10.438;2022-11-28T06:15:28;19.00;;;10.73;;
18505;SDS011;9382;53.242;10.438;2022-11-28T06:17:56;18.60;;;11.20;;
18505;SDS011;9382;53.242;10.438;2022-11-28T06:20:22;17.27;;;10.60;;
18505;SDS011;9382;53.242;10.438;2022-11-28T06:22:49;17.13;;;10.60;;
18505;SDS011;9382;53.242;10.438;2022-11-28T06:25:16;19.40;;;10.87;;
18505;SDS011;9382;53.242;10.438;2022-11-28T06:27:43;17.30;;;10.53;;
18505;SDS011;9382;53.242;10.438;2022-11-28T06:30:12;17.53;;;10.77;;
18505;SDS011;9382;53.242;10.438;2022-11-28T06:32:39;20.53;;;11.70;;
18505;SDS011;9382;53.242;10.438;2022-11-28T06:35:06;17.97;;;10.90;;
18505;SDS011;9382;53.242;10.438;2022-11-28T06:37:33;17.43;;;10.90;;
18505;SDS011;9382;53.242;10.438;2022-11-28T06:39:59;17.57;;;11.63;;
18505;SDS011;9382;53.242;10.438;2022-11-28T06:42:26;22.47;;;12.17;;
18505;SDS011;9382;53.242;10.438;2022-11-28T06:44:53;18.67;;;11.60;;
18505;SDS011;9382;53.242;10.438;2022-11-28T06:47:21;18.50;;;11.17;;
18505;SDS011;9382;53.242;10.438;2022-11-28T06:49:47;18.67;;;11.10;;
18505;SDS011;9382;53.242;10.438;2022-11-28T06:52:14;18.67;;;11.40;;
18505;SDS011;9382;53.242;10.438;2022-11-28T06:54:41;20.33;;;12.10;;
18505;SDS011;9382;53.242;10.438;2022-11-28T06:57:08;19.53;;;11.17;;
18505;SDS011;9382;53.242;10.438;2022-11-28T06:59:35;19.57;;;11.30;;
18505;SDS011;9382;53.242;10.438;2022-11-28T07:02:02;19.93;;;12.37;;
18505;SDS011;9382;53.242;10.438;2022-11-28T07:04:30;18.53;;;12.20;;
18505;SDS011;9382;53.242;10.438;2022-11-28T07:06:57;20.27;;;12.60;;
18505;SDS011;9382;53.242;10.438;2022-11-28T07:09:23;20.70;;;12.07;;
18505;SDS011;9382;53.242;10.438;2022-11-28T07:11:50;20.90;;;12.50;;
18505;SDS011;9382;53.242;10.438;2022-11-28T07:14:17;22.90;;;12.47;;
18505;SDS011;9382;53.242;10.438;2022-11-28T07:16:44;21.83;;;12.93;;
18505;SDS011;9382;53.242;10.438;2022-11-28T07:19:11;20.03;;;12.50;;
18505;SDS011;9382;53.242;10.438;2022-11-28T07:21:39;21.30;;;12.23;;
18505;SDS011;9382;53.242;10.438;2022-11-28T07:24:06;23.63;;;13.13;;
18505;SDS011;9382;53.242;10.438;2022-11-28T07:26:33;22.17;;;13.00;;
18505;SDS011;9382;53.242;10.438;2022-11-28T07:29:02;22.77;;;12.47;;
18505;SDS011;9382;53.242;10.438;2022-11-28T07:31:31;21.73;;;11.80;;
18505;SDS011;9382;53.242;10.438;2022-11-28T07:33:58;22.70;;;12.20;;
18505;SDS011;9382;53.242;10.438;2022-11-28T07:36:26;19.63;;;12.03;;
18505;SDS011;9382;53.242;10.438;2022-11-28T07:38:56;21.37;;;13.07;;
18505;SDS011;9382;53.242;10.438;2022-11-28T07:41:24;20.93;;;11.90;;
18505;SDS011;9382;53.242;10.438;2022-11-28T07:43:52;22.63;;;13.00;;
18505;SDS011;9382;53.242;10.438;2022-11-28T07:46:20;22.20;;;13.37;;
18505;SDS011;9382;53.242;10.438;2022-11-28T07:48:47;21.17;;;12.60;;
18505;SDS011;9382;53.242;10.438;2022-11-28T07:51:14;22.93;;;12.80;;
18505;SDS011;9382;53.242;10.438;2022-11-28T07:53:43;22.63;;;12.43;;
18505;SDS011;9382;53.242;10.438;2022-11-28T07:56:12;21.43;;;12.93;;
18505;SDS011;9382;53.242;10.438;2022-11-28T07:58:40;20.27;;;12.23;;
18505;SDS011;9382;53.242;10.438;2022-11-28T08:01:08;19.73;;;12.43;;
18505;SDS011;9382;53.242;10.438;2022-11-28T08:03:36;22.73;;;13.10;;
18505;SDS011;9382;53.242;10.438;2022-11-28T08:06:03;23.67;;;13.17;;
18505;SDS011;9382;53.242;10.438;2022-11-28T08:08:30;21.97;;;12.67;;
18505;SDS011;9382;53.242;10.438;2022-11-28T08:10:57;21.67;;;12.73;;
18505;SDS011;9382;53.242;10.438;2022-11-28T08:13:27;23.73;;;12.47;;
18505;SDS011;9382;53.242;10.438;2022-11-28T08:15:54;23.97;;;13.00;;
18505;SDS011;9382;53.242;10.438;2022-11-28T08:18:21;22.70;;;12.70;;
18505;SDS011;9382;53.242;10.438;2022-11-28T08:20:48;22.10;;;12.67;;
18505;SDS011;9382;53.242;10.438;2022-11-28T08:23:15;25.23;;;13.87;;
18505;SDS011;9382;53.242;10.438;2022-11-28T08:25:41;25.10;;;13.27;;
18505;SDS011;9382;53.242;10.438;2022-11-28T08:28:08;22.40;;;13.27;;
18505;SDS011;9382;53.242;10.438;2022-11-28T08:30:36;22.73;;;12.67;;
18505;SDS011;9382;53.242;10.438;2022-11-28T08:33:03;19.83;;;12.60;;
18505;SDS011;9382;53.242;10.438;2022-11-28T08:35:29;23.87;;;13.73;;
18505;SDS011;9382;53.242;10.438;2022-11-28T08:37:56;20.47;;;12.60;;
18505;SDS011;9382;53.242;10.438;2022-11-28T08:40:23;21.77;;;12.67;;
18505;SDS011;9382;53.242;10.438;2022-11-28T08:42:49;19.10;;;11.90;;
18505;SDS011;9382;53.242;10.438;2022-11-28T08:45:16;20.37;;;11.73;;
18505;SDS011;9382;53.242;10.438;2022-11-28T08:47:44;23.73;;;12.87;;
18505;SDS011;9382;53.242;10.438;2022-11-28T08:50:11;20.90;;;12.20;;
18505;SDS011;9382;53.242;10.438;2022-11-28T08:52:38;21.77;;;12.13;;
18505;SDS011;9382;53.242;10.438;2022-11-28T08:55:05;20.77;;;12.37;;
18505;SDS011;9382;53.242;10.438;2022-11-28T08:57:32;23.23;;;12.87;;
18505;SDS011;9382;53.242;10.438;2022-11-28T08:59:58;21.70;;;12.03;;
18505;SDS011;9382;53.242;10.438;2022-11-28T09:02:25;20.90;;;12.40;;
18505;SDS011;9382;53.242;10.438;2022-11-28T09:04:53;21.07;;;11.80;;
18505;SDS011;9382;53.242;10.438;2022-11-28T09:07:20;20.53;;;12.00;;
18505;SDS011;9382;53.242;10.438;2022-11-28T09:09:47;21.50;;;12.10;;
18505;SDS011;9382;53.242;10.438;2022-11-28T09:12:13;23.00;;;12.60;;
18505;SDS011;9382;53.242;10.438;2022-11-28T09:14:40;22.73;;;12.47;;
18505;SDS011;9382;53.242;10.438;2022-11-28T09:17:07;20.73;;;12.53;;
18505;SDS011;9382;53.242;10.438;2022-11-28T09:19:34;23.83;;;12.83;;
18505;SDS011;9382;53.242;10.438;2022-11-28T09:22:02;22.80;;;12.60;;
18505;SDS011;9382;53.242;10.438;2022-11-28T09:24:29;20.20;;;11.93;;
18505;SDS011;9382;53.242;10.438;2022-11-28T09:26:56;23.33;;;12.80;;
18505;SDS011;9382;53.242;10.438;2022-11-28T09:29:23;18.70;;;11.67;;
18505;SDS011;9382;53.242;10.438;2022-11-28T09:31:50;23.27;;;11.97;;
18505;SDS011;9382;53.242;10.438;2022-11-28T09:34:16;23.20;;;12.53;;
18505;SDS011;9382;53.242;10.438;2022-11-28T09:36:43;20.87;;;12.47;;
18505;SDS011;9382;53.242;10.438;2022-11-28T09:39:11;20.30;;;11.97;;
18505;SDS011;9382;53.242;10.438;2022-11-28T09:44:29;22.60;;;12.40;;
18505;SDS011;9382;53.242;10.438;2022-11-28T09:47:03;24.07;;;13.23;;
18505;SDS011;9382;53.242;10.438;2022-11-28T09:49:39;20.30;;;11.83;;
18505;SDS011;9382;53.242;10.438;2022-11-28T09:52:13;21.60;;;12.17;;
18505;SDS011;9382;53.242;10.438;2022-11-28T09:54:51;23.57;;;12.53;;
18505;SDS011;9382;53.242;10.438;2022-11-28T09:57:25;19.67;;;11.90;;
18505;SDS011;9382;53.242;10.438;2022-11-28T09:59:59;19.63;;;12.03;;
18505;SDS011;9382;53.242;10.438;2022-11-28T10:02:27;18.77;;;11.93;;
18505;SDS011;9382;53.242;10.438;2022-11-28T10:05:03;21.50;;;12.83;;
18505;SDS011;9382;53.242;10.438;2022-11-28T10:07:40;21.50;;;12.67;;
18505;SDS011;9382;53.242;10.438;2022-11-28T10:10:21;18.00;;;11.50;;
18505;SDS011;9382;53.242;10.438;2022-11-28T10:12:54;18.77;;;11.57;;
18505;SDS011;9382;53.242;10.438;2022-11-28T10:15:29;21.50;;;12.30;;
18505;SDS011;9382;53.242;10.438;2022-11-28T10:18:08;19.03;;;12.27;;
18505;SDS011;9382;53.242;10.438;2022-11-28T10:20:47;24.13;;;12.33;;
18505;SDS011;9382;53.242;10.438;2022-11-28T10:23:21;19.27;;;11.23;;
18505;SDS011;9382;53.242;10.438;2022-11-28T10:25:54;21.27;;;12.07;;
18505;SDS011;9382;53.242;10.438;2022-11-28T10:28:25;20.10;;;11.57;;
18505;SDS011;9382;53.242;10.438;2022-11-28T10:30:58;20.93;;;11.40;;
18505;SDS011;9382;53.242;10.438;2022-11-28T10:33:29;21.30;;;11.90;;
18505;SDS011;9382;53.242;10.438;2022-11-28T10:36:02;19.27;;;11.63;;
18505;SDS011;9382;53.242;10.438;2022-11-28T10:38:30;19.97;;;11.83;;
18505;SDS011;9382;53.242;10.438;2022-11-28T10:41:02;21.40;;;12.30;;
18505;SDS011;9382;53.242;10.438;2022-11-28T10:43:37;21.27;;;12.20;;
18505;SDS011;9382;53.242;10.438;2022-11-28T10:46:18;21.67;;;11.53;;
18505;SDS011;9382;53.242;10.438;2022-11-28T10:48:55;19.40;;;11.13;;
18505;SDS011;9382;53.242;10.438;2022-11-28T10:51:32;19.47;;;10.73;;
18505;SDS011;9382;53.242;10.438;2022-11-28T10:54:08;19.33;;;10.60;;
18505;SDS011;9382;53.242;10.438;2022-11-28T10:56:48;19.10;;;10.87;;
18505;SDS011;9382;53.242;10.438;2022-11-28T10:59:24;19.27;;;10.60;;
18505;SDS011;9382;53.242;10.438;2022-11-28T11:01:57;19.27;;;10.97;;
18505;SDS011;9382;53.242;10.438;2022-11-28T11:04:25;18.80;;;11.13;;
18505;SDS011;9382;53.242;10.438;2022-11-28T11:06:58;17.70;;;10.70;;
18505;SDS011;9382;53.242;10.438;2022-11-28T11:09:30;19.20;;;11.00;;
18505;SDS011;9382;53.242;10.438;2022-11-28T11:11:58;21.57;;;11.00;;
18505;SDS011;9382;53.242;10.438;2022-11-28T11:14:31;18.53;;;11.17;;
18505;SDS011;9382;53.242;10.438;2022-11-28T11:17:00;18.83;;;11.17;;
18505;SDS011;9382;53.242;10.438;2022-11-28T11:19:28;16.83;;;10.73;;
18505;SDS011;9382;53.242;10.438;2022-11-28T11:21:58;21.67;;;11.00;;
18505;SDS011;9382;53.242;10.438;2022-11-28T11:24:27;23.07;;;11.43;;
18505;SDS011;9382;53.242;10.438;2022-11-28T11:26:54;19.43;;;11.27;;
18505;SDS011;9382;53.242;10.438;2022-11-28T11:29:31;18.63;;;11.53;;
18505;SDS011;9382;53.242;10.438;2022-11-28T11:31:59;17.83;;;11.33;;
18505;SDS011;9382;53.242;10.438;2022-11-28T11:34:31;20.33;;;11.37;;
18505;SDS011;9382;53.242;10.438;2022-11-28T11:37:16;20.47;;;10.97;;
18505;SDS011;9382;53.242;10.438;2022-11-28T11:39:46;17.07;;;11.07;;
18505;SDS011;9382;53.242;10.438;2022-11-28T11:42:19;20.50;;;11.87;;
18505;SDS011;9382;53.242;10.438;2022-11-28T11:44:48;20.53;;;11.33;;
18505;SDS011;9382;53.242;10.438;2022-11-28T11:47:14;19.10;;;11.97;;
18505;SDS011;9382;53.242;10.438;2022-11-28T11:49:42;21.20;;;11.77;;
18505;SDS011;9382;53.242;10.438;2022-11-28T11:52:14;21.57;;;11.63;;
18505;SDS011;9382;53.242;10.438;2022-11-28T11:54:53;21.43;;;11.97;;
18505;SDS011;9382;53.242;10.438;2022-11-28T11:57:25;16.73;;;11.13;;
18505;SDS011;9382;53.242;10.438;2022-11-28T11:59:55;20.57;;;11.87;;
18505;SDS011;9382;53.242;10.438;2022-11-28T12:02:29;19.63;;;11.57;;
18505;SDS011;9382;53.242;10.438;2022-11-28T12:05:02;22.17;;;11.90;;
18505;SDS011;9382;53.242;10.438;2022-11-28T12:07:32;20.93;;;12.23;;
18505;SDS011;9382;53.242;10.438;2022-11-28T12:10:04;22.90;;;11.80;;
18505;SDS011;9382;53.242;10.438;2022-11-28T12:12:37;20.40;;;12.00;;
18505;SDS011;9382;53.242;10.438;2022-11-28T12:15:11;19.07;;;11.63;;
18505;SDS011;9382;53.242;10.438;2022-11-28T12:17:43;20.23;;;11.13;;
18505;SDS011;9382;53.242;10.438;2022-11-28T12:20:30;24.27;;;13.30;;
18505;SDS011;9382;53.242;10.438;2022-11-28T12:23:06;22.23;;;12.37;;
18505;SDS011;9382;53.242;10.438;2022-11-28T12:25:43;22.67;;;12.23;;
18505;SDS011;9382;53.242;10.438;2022-11-28T12:28:20;24.10;;;12.97;;
18505;SDS011;9382;53.242;10.438;2022-11-28T12:30:57;20.27;;;12.43;;
18505;SDS011;9382;53.242;10.438;2022-11-28T12:33:36;24.00;;;14.67;;
18505;SDS011;9382;53.242;10.438;2022-11-28T12:36:13;17.93;;;11.10;;
18505;SDS011;9382;53.242;10.438;2022-11-28T12:38:56;16.93;;;10.67;;
18505;SDS011;9382;53.242;10.438;2022-11-28T12:41:36;16.27;;;10.77;;
18505;SDS011;9382;53.242;10.438;2022-11-28T12:44:23;17.93;;;11.10;;
18505;SDS011;9382;53.242;10.438;2022-11-28T12:46:59;20.30;;;11.23;;
18505;SDS011;9382;53.242;10.438;2022-11-28T12:49:33;20.87;;;11.23;;
18505;SDS011;9382;53.242;10.438;2022-11-28T12:52:09;19.50;;;11.57;;
18505;SDS011;9382;53.242;10.438;2022-11-28T12:54:49;17.67;;;11.00;;
18505;SDS011;9382;53.242;10.438;2022-11-28T12:57:27;20.30;;;11.70;;
18505;SDS011;9382;53.242;10.438;2022-11-28T13:00:01;18.17;;;11.00;;
18505;SDS011;9382;53.242;10.438;2022-11-28T13:02:33;21.87;;;12.50;;
18505;SDS011;9382;53.242;10.438;2022-11-28T13:05:20;18.77;;;10.87;;
18505;SDS011;9382;53.242;10.438;2022-11-28T13:08:03;23.63;;;13.30;;
18505;SDS011;9382;53.242;10.438;2022-11-28T13:10:39;26.60;;;13.47;;
18505;SDS011;9382;53.242;10.438;2022-11-28T13:13:15;22.17;;;12.50;;
18505;SDS011;9382;53.242;10.438;2022-11-28T13:15:49;22.67;;;13.67;;
18505;SDS011;9382;53.242;10.438;2022-11-28T13:18:27;19.67;;;11.10;;
18505;SDS011;9382;53.242;10.438;2022-11-28T13:21:05;23.97;;;13.47;;
18505;SDS011;9382;53.242;10.438;2022-11-28T13:23:41;18.93;;;12.00;;
18505;SDS011;9382;53.242;10.438;2022-11-28T13:26:15;17.73;;;11.77;;
18505;SDS011;9382;53.242;10.438;2022-11-28T13:28:53;17.77;;;11.47;;
18505;SDS011;9382;53.242;10.438;2022-11-28T13:31:29;18.00;;;11.13;;
18505;SDS011;9382;53.242;10.438;2022-11-28T13:34:01;17.53;;;12.03;;
18505;SDS011;9382;53.242;10.438;2022-11-28T13:36:31;22.50;;;12.33;;
18505;SDS011;9382;53.242;10.438;2022-11-28T13:39:05;17.43;;;10.67;;
18505;SDS011;9382;53.242;10.438;2022-11-28T13:41:38;20.10;;;11.40;;
18505;SDS011;9382;53.242;10.438;2022-11-28T13:44:10;18.30;;;10.77;;
18505;SDS011;9382;53.242;10.438;2022-11-28T13:46:42;22.10;;;11.00;;
18505;SDS011;9382;53.242;10.438;2022-11-28T13:49:17;19.10;;;11.00;;
18505;SDS011;9382;53.242;10.438;2022-11-28T13:51:47;17.47;;;10.93;;
18505;SDS011;9382;53.242;10.438;2022-11-28T13:57:18;18.10;;;10.70;;
18505;SDS011;9382;53.242;10.438;2022-11-28T13:59:57;19.93;;;11.40;;
18505;SDS011;9382;53.242;10.438;2022-11-28T14:02:34;20.03;;;10.83;;
18505;SDS011;9382;53.242;10.438;2022-11-28T14:05:14;18.63;;;10.77;;
18505;SDS011;9382;53.242;10.438;2022-11-28T14:07:49;19.93;;;11.40;;
18505;SDS011;9382;53.242;10.438;2022-11-28T14:10:23;19.13;;;10.60;;
18505;SDS011;9382;53.242;10.438;2022-11-28T14:16:15;19.57;;;10.77;;
18505;SDS011;9382;53.242;10.438;2022-11-28T14:18:58;20.80;;;10.67;;
18505;SDS011;9382;53.242;10.438;2022-11-28T14:21:37;20.13;;;11.30;;
18505;SDS011;9382;53.242;10.438;2022-11-28T14:24:15;21.37;;;12.77;;
18505;SDS011;9382;53.242;10.438;2022-11-28T14:26:50;23.43;;;12.20;;
18505;SDS011;9382;53.242;10.438;2022-11-28T14:29:24;23.23;;;12.70;;
18505;SDS011;9382;53.242;10.438;2022-11-28T14:31:59;20.13;;;11.90;;
18505;SDS011;9382;53.242;10.438;2022-11-28T14:34:37;22.10;;;13.67;;
18505;SDS011;9382;53.242;10.438;2022-11-28T14:43:30;20.67;;;11.50;;
18505;SDS011;9382;53.242;10.438;2022-11-28T14:52:17;21.27;;;11.87;;
18505;SDS011;9382;53.242;10.438;2022-11-28T14:54:46;19.27;;;11.30;;
18505;SDS011;9382;53.242;10.438;2022-11-28T14:57:15;18.03;;;11.33;;
18505;SDS011;9382;53.242;10.438;2022-11-28T14:59:44;23.33;;;12.23;;
18505;SDS011;9382;53.242;10.438;2022-11-28T15:02:31;21.67;;;12.00;;
18505;SDS011;9382;53.242;10.438;2022-11-28T15:05:29;19.47;;;11.30;;
18505;SDS011;9382;53.242;10.438;2022-11-28T15:11:22;20.93;;;13.10;;
18505;SDS011;9382;53.242;10.438;2022-11-28T15:14:05;18.60;;;11.50;;
18505;SDS011;9382;53.242;10.438;2022-11-28T15:16:35;20.17;;;11.73;;
18505;SDS011;9382;53.242;10.438;2022-11-28T15:19:06;19.67;;;11.97;;
18505;SDS011;9382;53.242;10.438;2022-11-28T15:21:41;17.80;;;12.10;;